Time,TemperatureF,DewpointF,PressureIn,WindDirection,WindDirectionDegrees,WindSpeedMPH,WindSpeedGustMPH,Humidity,HourlyPrecipIn,Conditions,Clouds,dailyrainin,SolarRadiationWatts/m^2,SoftwareType,DateUTC
2013-01-17 00:00:00,34.9,33.9,29.47,NNE,17,6.0,14.0,96,0.00,,,0.00,0000,Weather View 32 v70,2013-01-17 05:00:00,
2013-01-17 00:01:00,34.9,33.9,29.47,NE,34,10.0,14.0,96,0.00,,,0.00,0000,Weather View 32 v70,2013-01-17 05:01:00,
2013-01-17 00:02:00,35.1,34.1,29.48,NNE,28,11.0,15.0,96,0.00,,,0.00,0000,Weather View 32 v70,2013-01-17 05:02:00,
2013-01-17 00:07:00,35.0,34.0,29.47,NNE,28,7.0,15.0,96,0.00,,,0.00,0000,Weather View 32 v70,2013-01-17 05:07:00,
2013-01-17 00:12:00,35.0,34.0,29.48,NE,34,7.0,16.0,96,0.00,,,0.00,0000,Weather View 32 v70,2013-01-17 05:12:00,
2013-01-17 00:17:00,34.9,33.9,29.46,NNE,28,6.0,16.0,96,0.00,,,0.00,0000,Weather View 32 v70,2013-01-17 05:17:00,
2013-01-17 00:22:00,34.9,33.9,29.47,NNE,28,9.0,16.0,96,0.00,,,0.00,0000,Weather View 32 v70,2013-01-17 05:22:00,
2013-01-17 00:27:00,35.0,34.0,29.47,NNE,28,8.0,16.0,96,0.00,,,0.00,0000,Weather View 32 v70,2013-01-17 05:27:00,
2013-01-17 00:32:00,35.0,34.0,29.46,North,6,7.0,16.0,96,0.00,,,0.00,0000,Weather View 32 v70,2013-01-17 05:32:00,
2013-01-17 00:37:00,35.0,33.7,29.47,NE,34,6.0,16.0,95,0.00,,,0.00,0000,Weather View 32 v70,2013-01-17 05:37:00,
2013-01-17 00:42:00,34.9,33.9,29.48,NNE,23,8.0,16.0,96,0.00,,,0.00,0000,Weather View 32 v70,2013-01-17 05:42:00,
2013-01-17 00:47:00,34.9,33.9,29.48,North,11,4.0,16.0,96,0.00,,,0.00,0000,Weather View 32 v70,2013-01-17 05:47:00,
2013-01-17 00:52:00,35.1,34.1,29.47,North,6,8.0,16.0,96,0.00,,,0.00,0000,Weather View 32 v70,2013-01-17 05:52:00,
2013-01-17 00:57:00,34.9,33.6,29.47,NNE,17,7.0,16.0,95,0.00,,,0.00,0000,Weather View 32 v70,2013-01-17 05:57:00,
2013-01-17 01:02:00,35.0,33.7,29.47,North,11,7.0,16.0,95,0.00,,,0.00,0000,Weather View 32 v70,2013-01-17 06:02:00,
2013-01-17 01:07:00,35.0,33.7,29.47,NE,34,5.0,16.0,95,0.00,,,0.00,0000,Weather View 32 v70,2013-01-17 06:07:00,
2013-01-17 01:12:00,35.0,33.7,29.47,NNE,23,5.0,14.0,95,0.00,,,0.00,0000,Weather View 32 v70,2013-01-17 06:12:00,
2013-01-17 01:17:00,35.0,33.7,29.46,NNE,28,7.0,14.0,95,0.00,,,0.00,0000,Weather View 32 v70,2013-01-17 06:17:00,
2013-01-17 01:22:00,35.0,33.4,29.46,NNE,28,5.0,13.0,94,0.00,,,0.00,0000,Weather View 32 v70,2013-01-17 06:22:00,
2013-01-17 01:27:00,35.2,33.4,29.48,North,6,8.0,13.0,93,0.00,,,0.00,0000,Weather View 32 v70,2013-01-17 06:27:00,
2013-01-17 01:32:00,35.1,33.3,29.48,NNE,23,4.0,12.0,93,0.00,,,0.00,0000,Weather View 32 v70,2013-01-17 06:32:00,
2013-01-17 01:37:00,35.0,33.4,29.47,NNE,28,4.0,11.0,94,0.00,,,0.00,0000,Weather View 32 v70,2013-01-17 06:37:00,
2013-01-17 01:42:00,34.9,33.3,29.46,NNE,23,7.0,11.0,94,0.00,,,0.00,0000,Weather View 32 v70,2013-01-17 06:42:00,
2013-01-17 01:47:00,35.0,33.4,29.47,North,11,6.0,11.0,94,0.00,,,0.00,0000,Weather View 32 v70,2013-01-17 06:47:00,
2013-01-17 01:52:00,34.8,33.2,29.46,North,0,4.0,11.0,94,0.00,,,0.00,0000,Weather View 32 v70,2013-01-17 06:52:00,
2013-01-17 01:57:00,34.9,33.3,29.47,North,6,4.0,11.0,94,0.00,,,0.00,0000,Weather View 32 v70,2013-01-17 06:57:00,
2013-01-17 02:02:00,35.2,32.9,29.48,North,6,6.0,11.0,91,0.00,,,0.00,0000,Weather View 32 v70,2013-01-17 07:02:00,
2013-01-17 02:07:00,35.2,32.9,29.47,NNE,28,8.0,11.0,91,0.00,,,0.00,0000,Weather View 32 v70,2013-01-17 07:07:00,
2013-01-17 02:12:00,35.5,32.5,29.47,NNE,28,8.0,11.0,89,0.00,,,0.00,0000,Weather View 32 v70,2013-01-17 07:12:00,
2013-01-17 02:17:00,35.5,32.5,29.48,NNE,28,7.0,11.0,89,0.00,,,0.00,0000,Weather View 32 v70,2013-01-17 07:17:00,
2013-01-17 02:22:00,35.8,32.6,29.47,NE,34,8.0,12.0,88,0.00,,,0.00,0000,Weather View 32 v70,2013-01-17 07:22:00,
2013-01-17 02:27:00,36.1,32.1,29.49,NNE,28,10.0,12.0,85,0.00,,,0.00,0000,Weather View 32 v70,2013-01-17 07:27:00,
2013-01-17 02:32:00,36.6,31.3,29.48,NE,34,11.0,12.0,81,0.00,,,0.00,0000,Weather View 32 v70,2013-01-17 07:32:00,
2013-01-17 02:37:00,36.6,31.3,29.49,NE,39,9.0,13.0,81,0.00,,,0.00,0000,Weather View 32 v70,2013-01-17 07:37:00,
2013-01-17 02:42:00,36.4,31.4,29.48,North,11,6.0,13.0,82,0.00,,,0.00,0000,Weather View 32 v70,2013-01-17 07:42:00,
2013-01-17 02:47:00,36.4,31.1,29.48,NE,34,7.0,13.0,81,0.00,,,0.00,0000,Weather View 32 v70,2013-01-17 07:47:00,
2013-01-17 02:52:00,36.4,31.1,29.47,NNE,23,6.0,13.0,81,0.00,,,0.00,0000,Weather View 32 v70,2013-01-17 07:52:00,
2013-01-17 02:57:00,36.4,31.1,29.48,North,11,7.0,13.0,81,0.00,,,0.00,0000,Weather View 32 v70,2013-01-17 07:57:00,
2013-01-17 03:02:00,36.5,30.9,29.48,North,6,5.0,13.0,80,0.00,,,0.00,0000,Weather View 32 v70,2013-01-17 08:02:00,
2013-01-17 03:07:00,36.3,31.0,29.48,NNE,23,9.0,13.0,81,0.00,,,0.00,0000,Weather View 32 v70,2013-01-17 08:07:00,
2013-01-17 03:12:00,36.5,30.9,29.48,NNE,28,5.0,13.0,80,0.00,,,0.00,0000,Weather View 32 v70,2013-01-17 08:12:00,
2013-01-17 03:17:00,36.6,30.7,29.47,NNE,28,7.0,13.0,79,0.00,,,0.00,0000,Weather View 32 v70,2013-01-17 08:17:00,
2013-01-17 03:22:00,36.7,30.8,29.49,North,6,4.0,13.0,79,0.00,,,0.00,0000,Weather View 32 v70,2013-01-17 08:22:00,
2013-01-17 03:27:00,36.7,30.5,29.48,North,6,4.0,13.0,78,0.00,,,0.00,0000,Weather View 32 v70,2013-01-17 08:27:00,
2013-01-17 03:32:00,36.6,30.4,29.48,North,0,4.0,13.0,78,0.00,,,0.00,0000,Weather View 32 v70,2013-01-17 08:32:00,
2013-01-17 03:37:00,36.6,30.4,29.48,North,6,3.0,11.0,78,0.00,,,0.00,0000,Weather View 32 v70,2013-01-17 08:37:00,
2013-01-17 03:42:00,36.6,30.7,29.48,North,6,4.0,11.0,79,0.00,,,0.00,0000,Weather View 32 v70,2013-01-17 08:42:00,
2013-01-17 03:47:00,36.8,30.3,29.47,North,6,4.0,11.0,77,0.00,,,0.00,0000,Weather View 32 v70,2013-01-17 08:47:00,
2013-01-17 03:52:00,37.0,29.8,29.47,North,6,4.0,11.0,75,0.00,,,0.00,0000,Weather View 32 v70,2013-01-17 08:52:00,
2013-01-17 03:57:00,37.0,29.8,29.48,North,6,6.0,11.0,75,0.00,,,0.00,0000,Weather View 32 v70,2013-01-17 08:57:00,
2013-01-17 04:02:00,37.3,29.7,29.48,North,6,6.0,11.0,74,0.00,,,0.00,0000,Weather View 32 v70,2013-01-17 09:02:00,
2013-01-17 04:07:00,37.4,29.5,29.49,NNE,23,8.0,11.0,73,0.00,,,0.00,0000,Weather View 32 v70,2013-01-17 09:07:00,
2013-01-17 04:12:00,37.4,29.5,29.49,North,11,8.0,11.0,73,0.00,,,0.00,0000,Weather View 32 v70,2013-01-17 09:12:00,
2013-01-17 04:17:00,37.5,29.3,29.48,NNE,28,9.0,11.0,72,0.00,,,0.00,0000,Weather View 32 v70,2013-01-17 09:17:00,
2013-01-17 04:22:00,37.4,29.2,29.48,NNE,28,8.0,12.0,72,0.00,,,0.00,0000,Weather View 32 v70,2013-01-17 09:22:00,
2013-01-17 04:27:00,37.2,29.0,29.48,NNE,28,8.0,14.0,72,0.00,,,0.00,0000,Weather View 32 v70,2013-01-17 09:27:00,
2013-01-17 04:32:00,37.3,29.0,29.47,NNE,28,8.0,14.0,72,0.00,,,0.00,0000,Weather View 32 v70,2013-01-17 09:32:00,
2013-01-17 04:37:00,37.2,29.0,29.48,NE,34,9.0,14.0,72,0.00,,,0.00,0000,Weather View 32 v70,2013-01-17 09:37:00,
2013-01-17 04:42:00,36.9,29.1,29.47,NNE,28,6.0,14.0,73,0.00,,,0.00,0000,Weather View 32 v70,2013-01-17 09:42:00,
2013-01-17 04:47:00,37.0,29.2,29.47,NNE,23,7.0,14.0,73,0.00,,,0.00,0000,Weather View 32 v70,2013-01-17 09:47:00,
2013-01-17 04:52:00,37.0,28.8,29.47,NNE,23,5.0,14.0,72,0.00,,,0.00,0000,Weather View 32 v70,2013-01-17 09:52:00,
2013-01-17 04:57:00,37.0,28.5,29.47,NNE,17,7.0,14.0,71,0.00,,,0.00,0000,Weather View 32 v70,2013-01-17 09:57:00,
2013-01-17 05:02:00,37.0,28.8,29.48,NE,34,7.0,14.0,72,0.00,,,0.00,0000,Weather View 32 v70,2013-01-17 10:02:00,
2013-01-17 05:07:00,36.8,29.0,29.48,NE,39,9.0,14.0,73,0.00,,,0.00,0000,Weather View 32 v70,2013-01-17 10:07:00,
2013-01-17 05:12:00,36.6,29.1,29.48,NNE,28,4.0,14.0,74,0.00,,,0.00,0000,Weather View 32 v70,2013-01-17 10:12:00,
2013-01-17 05:17:00,36.1,29.6,29.48,NNE,28,6.0,14.0,77,0.00,,,0.00,0000,Weather View 32 v70,2013-01-17 10:17:00,
2013-01-17 05:22:00,36.1,29.9,29.49,NE,51,7.0,14.0,78,0.00,,,0.00,0000,Weather View 32 v70,2013-01-17 10:22:00,
2013-01-17 05:27:00,36.0,29.5,29.49,NNE,28,4.0,14.0,77,0.00,,,0.00,0000,Weather View 32 v70,2013-01-17 10:27:00,
2013-01-17 05:32:00,35.9,29.4,29.50,NNE,28,5.0,14.0,77,0.00,,,0.00,0000,Weather View 32 v70,2013-01-17 10:32:00,
2013-01-17 05:37:00,35.8,29.6,29.51,NNE,28,7.0,13.0,78,0.00,,,0.00,0000,Weather View 32 v70,2013-01-17 10:37:00,
2013-01-17 05:42:00,36.0,29.2,29.52,NNE,28,5.0,13.0,76,0.00,,,0.00,0000,Weather View 32 v70,2013-01-17 10:42:00,
2013-01-17 05:47:00,36.1,28.6,29.51,NNE,28,4.0,13.0,74,0.00,,,0.00,0000,Weather View 32 v70,2013-01-17 10:47:00,
2013-01-17 05:52:00,36.1,28.6,29.50,NNE,28,3.0,13.0,74,0.00,,,0.00,0000,Weather View 32 v70,2013-01-17 10:52:00,
2013-01-17 05:58:00,36.1,28.3,29.48,NNE,28,4.0,13.0,73,0.00,,,0.00,0000,Weather View 32 v70,2013-01-17 10:58:00,
2013-01-17 06:03:00,36.3,29.4,29.50,North,11,5.0,13.0,76,0.00,,,0.00,0000,Weather View 32 v70,2013-01-17 11:03:00,
2013-01-17 06:08:00,36.1,28.0,29.51,NNE,23,5.0,13.0,72,0.00,,,0.00,0000,Weather View 32 v70,2013-01-17 11:08:00,
2013-01-17 06:13:00,36.5,27.6,29.52,NE,56,11.0,14.0,70,0.00,,,0.00,0000,Weather View 32 v70,2013-01-17 11:13:00,
2013-01-17 06:18:00,36.5,27.6,29.52,NE,34,8.0,14.0,70,0.00,,,0.00,0000,Weather View 32 v70,2013-01-17 11:18:00,
2013-01-17 06:23:00,36.4,27.1,29.52,NE,45,8.0,14.0,69,0.00,,,0.00,0000,Weather View 32 v70,2013-01-17 11:23:00,
2013-01-17 06:28:00,36.5,27.3,29.52,NE,45,14.0,15.0,69,0.00,,,0.00,0000,Weather View 32 v70,2013-01-17 11:28:00,
2013-01-17 06:33:00,36.4,27.5,29.53,NE,39,8.0,17.0,70,0.00,,,0.00,0000,Weather View 32 v70,2013-01-17 11:33:00,
2013-01-17 06:38:00,36.4,27.1,29.53,NE,34,8.0,17.0,69,0.00,,,0.00,0000,Weather View 32 v70,2013-01-17 11:38:00,
2013-01-17 06:43:00,36.3,27.4,29.53,NNE,17,9.0,17.0,70,0.00,,,0.00,0000,Weather View 32 v70,2013-01-17 11:43:00,
2013-01-17 06:48:00,36.0,27.5,29.53,NE,51,8.0,17.0,71,0.00,,,0.00,0000,Weather View 32 v70,2013-01-17 11:48:00,
2013-01-17 06:53:00,36.1,27.6,29.53,NNE,28,4.0,17.0,71,0.00,,,0.00,0000,Weather View 32 v70,2013-01-17 11:53:00,
2013-01-17 06:58:00,36.3,27.4,29.53,ENE,73,8.0,17.0,70,0.00,,,0.00,0000,Weather View 32 v70,2013-01-17 11:58:00,
2013-01-17 07:03:00,36.3,27.4,29.54,NE,56,12.0,17.0,70,0.00,,,0.00,0000,Weather View 32 v70,2013-01-17 12:03:00,
2013-01-17 07:08:00,36.1,27.6,29.53,NE,34,7.0,17.0,71,0.00,,,0.00,0000,Weather View 32 v70,2013-01-17 12:08:00,
2013-01-17 07:13:00,35.9,27.4,29.53,NNE,28,5.0,17.0,71,0.00,,,0.00,0000,Weather View 32 v70,2013-01-17 12:13:00,
2013-01-17 07:18:00,36.3,27.4,29.55,NE,34,7.0,17.0,70,0.00,,,0.00,0008,Weather View 32 v70,2013-01-17 12:18:00,
2013-01-17 07:23:00,36.3,27.4,29.55,NE,34,4.0,17.0,70,0.00,,,0.00,0008,Weather View 32 v70,2013-01-17 12:23:00,
2013-01-17 07:28:00,36.3,27.4,29.55,NE,39,9.0,17.0,70,0.00,,,0.00,0016,Weather View 32 v70,2013-01-17 12:28:00,
2013-01-17 07:33:00,36.1,27.6,29.56,NNE,28,6.0,17.0,71,0.00,,,0.00,0016,Weather View 32 v70,2013-01-17 12:33:00,
2013-01-17 07:38:00,36.3,27.4,29.55,NE,34,7.0,17.0,70,0.00,,,0.00,0032,Weather View 32 v70,2013-01-17 12:38:00,
2013-01-17 07:43:00,37.0,27.8,29.56,NE,34,6.0,17.0,69,0.00,,,0.00,0064,Weather View 32 v70,2013-01-17 12:43:00,
2013-01-17 07:48:00,37.3,27.7,29.57,NNE,28,3.0,17.0,68,0.00,,,0.00,0048,Weather View 32 v70,2013-01-17 12:48:00,
2013-01-17 07:53:00,36.7,27.5,29.57,NE,51,8.0,17.0,69,0.00,,,0.00,0048,Weather View 32 v70,2013-01-17 12:53:00,
2013-01-17 07:58:00,36.7,27.5,29.58,NNE,28,3.0,17.0,69,0.00,,,0.00,0064,Weather View 32 v70,2013-01-17 12:58:00,
2013-01-17 08:03:00,37.0,27.1,29.58,NE,34,8.0,17.0,67,0.00,,,0.00,0064,Weather View 32 v70,2013-01-17 13:03:00,
2013-01-17 08:08:00,38.3,28.3,29.57,NNE,28,5.0,17.0,67,0.00,,,0.00,0144,Weather View 32 v70,2013-01-17 13:08:00,
2013-01-17 08:13:00,37.8,27.8,29.57,NNE,28,4.0,17.0,67,0.00,,,0.00,0096,Weather View 32 v70,2013-01-17 13:13:00,
2013-01-17 08:18:00,36.9,27.0,29.58,NNE,28,3.0,17.0,67,0.00,,,0.00,0064,Weather View 32 v70,2013-01-17 13:18:00,
2013-01-17 08:23:00,37.0,27.1,29.59,NNE,28,4.0,17.0,67,0.00,,,0.00,0056,Weather View 32 v70,2013-01-17 13:23:00,
2013-01-17 08:28:00,37.2,27.2,29.59,NE,34,7.0,17.0,67,0.00,,,0.00,0056,Weather View 32 v70,2013-01-17 13:28:00,
2013-01-17 08:33:00,37.0,26.7,29.59,NE,34,6.0,12.0,66,0.00,,,0.00,0072,Weather View 32 v70,2013-01-17 13:33:00,
2013-01-17 08:38:00,37.7,26.6,29.59,NE,34,5.0,12.0,64,0.00,,,0.00,0064,Weather View 32 v70,2013-01-17 13:38:00,
2013-01-17 08:43:00,37.5,26.0,29.59,NNE,28,7.0,12.0,63,0.00,,,0.00,0056,Weather View 32 v70,2013-01-17 13:43:00,
2013-01-17 08:48:00,37.6,26.1,29.59,NNE,28,4.0,12.0,63,0.00,,,0.00,0072,Weather View 32 v70,2013-01-17 13:48:00,
2013-01-17 08:53:00,37.7,25.8,29.59,NNE,28,6.0,11.0,62,0.00,,,0.00,0080,Weather View 32 v70,2013-01-17 13:53:00,
2013-01-17 08:58:00,37.9,26.1,29.59,NNE,28,7.0,13.0,62,0.00,,,0.00,0096,Weather View 32 v70,2013-01-17 13:58:00,
2013-01-17 09:03:00,37.7,25.8,29.59,NE,34,7.0,13.0,62,0.00,,,0.00,0080,Weather View 32 v70,2013-01-17 14:03:00,
2013-01-17 09:08:00,37.8,26.3,29.60,NNE,28,7.0,13.0,63,0.00,,,0.00,0112,Weather View 32 v70,2013-01-17 14:08:00,
2013-01-17 09:13:00,37.8,26.3,29.60,NNE,28,3.0,13.0,63,0.00,,,0.00,0088,Weather View 32 v70,2013-01-17 14:13:00,
2013-01-17 09:18:00,37.8,26.0,29.60,East,96,11.0,15.0,62,0.00,,,0.00,0104,Weather View 32 v70,2013-01-17 14:18:00,
2013-01-17 09:23:00,37.9,26.4,29.60,ENE,68,6.0,15.0,63,0.00,,,0.00,0096,Weather View 32 v70,2013-01-17 14:23:00,
2013-01-17 09:28:00,37.8,26.3,29.60,NE,39,8.0,15.0,63,0.00,,,0.00,0120,Weather View 32 v70,2013-01-17 14:28:00,
2013-01-17 09:33:00,38.3,26.8,29.60,NE,34,6.0,15.0,63,0.00,,,0.00,0152,Weather View 32 v70,2013-01-17 14:33:00,
2013-01-17 09:38:00,38.5,26.6,29.60,NE,34,6.0,16.0,62,0.00,,,0.00,0168,Weather View 32 v70,2013-01-17 14:38:00,
2013-01-17 09:43:00,38.3,26.0,29.61,NNE,28,6.0,16.0,61,0.00,,,0.00,0168,Weather View 32 v70,2013-01-17 14:43:00,
2013-01-17 09:48:00,38.7,26.8,29.61,NNE,28,5.0,16.0,62,0.00,,,0.00,0192,Weather View 32 v70,2013-01-17 14:48:00,
2013-01-17 09:53:00,39.9,27.5,29.61,NNE,28,2.0,16.0,61,0.00,,,0.00,0240,Weather View 32 v70,2013-01-17 14:53:00,
2013-01-17 09:58:00,39.7,27.4,29.60,NNE,28,3.0,16.0,61,0.00,,,0.00,0360,Weather View 32 v70,2013-01-17 14:58:00,
2013-01-17 10:03:00,40.2,27.8,29.60,NNE,28,7.0,16.0,61,0.00,,,0.00,0216,Weather View 32 v70,2013-01-17 15:03:00,
2013-01-17 10:08:00,41.2,27.5,29.60,NNE,28,6.0,16.0,58,0.00,,,0.00,0480,Weather View 32 v70,2013-01-17 15:08:00,
2013-01-17 10:13:00,40.5,26.9,29.60,NNE,28,5.0,16.0,58,0.00,,,0.00,0248,Weather View 32 v70,2013-01-17 15:13:00,
2013-01-17 10:18:00,40.3,27.1,29.60,NNE,28,3.0,16.0,59,0.00,,,0.00,0152,Weather View 32 v70,2013-01-17 15:18:00,
2013-01-17 10:23:00,39.3,26.5,29.59,NNE,28,7.0,16.0,60,0.00,,,0.00,0160,Weather View 32 v70,2013-01-17 15:23:00,
2013-01-17 10:28:00,40.2,27.0,29.59,NE,34,5.0,16.0,59,0.00,,,0.00,0176,Weather View 32 v70,2013-01-17 15:28:00,
2013-01-17 10:33:00,39.7,27.0,29.59,NNE,28,9.0,16.0,60,0.00,,,0.00,0176,Weather View 32 v70,2013-01-17 15:33:00,
2013-01-17 10:38:00,40.0,27.2,29.59,NE,34,4.0,12.0,60,0.00,,,0.00,0200,Weather View 32 v70,2013-01-17 15:38:00,
2013-01-17 10:43:00,40.3,26.7,29.60,NNE,28,5.0,12.0,58,0.00,,,0.00,0512,Weather View 32 v70,2013-01-17 15:43:00,
2013-01-17 10:48:00,40.9,26.3,29.60,NE,56,8.0,12.0,56,0.00,,,0.00,0472,Weather View 32 v70,2013-01-17 15:48:00,
2013-01-17 10:53:00,41.7,27.1,29.60,NE,39,6.0,14.0,56,0.00,,,0.00,0392,Weather View 32 v70,2013-01-17 15:53:00,
2013-01-17 10:58:00,43.0,27.5,29.60,NNE,28,6.0,14.0,54,0.00,,,0.00,0600,Weather View 32 v70,2013-01-17 15:58:00,
2013-01-17 11:03:00,42.4,26.5,29.59,NE,34,6.0,14.0,53,0.00,,,0.00,0408,Weather View 32 v70,2013-01-17 16:03:00,
2013-01-17 11:08:00,41.4,26.9,29.59,NNE,17,7.0,14.0,56,0.00,,,0.00,0568,Weather View 32 v70,2013-01-17 16:08:00,
2013-01-17 11:13:00,40.5,26.5,29.59,ENE,73,9.0,15.0,57,0.00,,,0.00,0152,Weather View 32 v70,2013-01-17 16:13:00,
2013-01-17 11:18:00,40.2,25.7,29.58,NNE,17,7.0,16.0,56,0.00,,,0.00,0144,Weather View 32 v70,2013-01-17 16:18:00,
2013-01-17 11:23:00,40.5,26.0,29.59,ENE,68,8.0,17.0,56,0.00,,,0.00,0176,Weather View 32 v70,2013-01-17 16:23:00,
2013-01-17 11:28:00,41.4,26.9,29.59,NNE,17,3.0,17.0,56,0.00,,,0.00,0368,Weather View 32 v70,2013-01-17 16:28:00,
2013-01-17 11:33:00,41.4,26.9,29.59,NE,45,4.0,17.0,56,0.00,,,0.00,0376,Weather View 32 v70,2013-01-17 16:33:00,
2013-01-17 11:38:00,40.8,26.3,29.59,East,101,8.0,17.0,56,0.00,,,0.00,0232,Weather View 32 v70,2013-01-17 16:38:00,
2013-01-17 11:43:00,41.0,26.5,29.59,ESE,113,16.0,17.0,56,0.00,,,0.00,0520,Weather View 32 v70,2013-01-17 16:43:00,
2013-01-17 11:48:00,41.9,27.3,29.59,East,79,10.0,18.0,56,0.00,,,0.00,0584,Weather View 32 v70,2013-01-17 16:48:00,
2013-01-17 11:53:00,40.6,26.1,29.59,South,174,12.0,18.0,56,0.00,,,0.00,0240,Weather View 32 v70,2013-01-17 16:53:00,
2013-01-17 11:58:00,41.3,26.3,29.59,NE,34,5.0,24.0,55,0.00,,,0.00,0656,Weather View 32 v70,2013-01-17 16:58:00,
2013-01-17 12:03:00,42.1,26.2,29.59,ESE,113,10.0,24.0,53,0.00,,,0.00,0384,Weather View 32 v70,2013-01-17 17:03:00,
2013-01-17 12:08:00,42.0,26.5,29.58,NE,34,6.0,24.0,54,0.00,,,0.00,0328,Weather View 32 v70,2013-01-17 17:08:00,
2013-01-17 12:13:00,43.1,26.6,29.59,ENE,62,9.0,24.0,52,0.00,,,0.00,0744,Weather View 32 v70,2013-01-17 17:13:00,
2013-01-17 12:18:00,42.3,26.4,29.58,NNE,28,5.0,24.0,53,0.00,,,0.00,0304,Weather View 32 v70,2013-01-17 17:18:00,
2013-01-17 12:23:00,43.5,26.5,29.58,East,79,12.0,24.0,51,0.00,,,0.00,0560,Weather View 32 v70,2013-01-17 17:23:00,
2013-01-17 12:28:00,42.8,26.3,29.59,NE,34,6.0,24.0,52,0.00,,,0.00,0560,Weather View 32 v70,2013-01-17 17:28:00,
2013-01-17 12:33:00,44.4,27.8,29.59,NNE,23,3.0,24.0,52,0.00,,,0.00,0368,Weather View 32 v70,2013-01-17 17:33:00,
2013-01-17 12:38:00,44.1,26.6,29.59,NE,39,5.0,24.0,50,0.00,,,0.00,0368,Weather View 32 v70,2013-01-17 17:38:00,
2013-01-17 12:43:00,43.8,26.8,29.59,North,349,5.0,24.0,51,0.00,,,0.00,0352,Weather View 32 v70,2013-01-17 17:43:00,
2013-01-17 12:48:00,43.5,26.5,29.59,NNE,28,3.0,24.0,51,0.00,,,0.00,0280,Weather View 32 v70,2013-01-17 17:48:00,
2013-01-17 12:53:00,42.1,25.3,29.58,NNE,28,5.0,24.0,51,0.00,,,0.00,0496,Weather View 32 v70,2013-01-17 17:53:00,
2013-01-17 12:58:00,42.9,26.4,29.58,NNE,23,7.0,22.0,52,0.00,,,0.00,0544,Weather View 32 v70,2013-01-17 17:58:00,
2013-01-17 13:03:00,42.6,24.7,29.58,ENE,62,8.0,22.0,49,0.00,,,0.00,0536,Weather View 32 v70,2013-01-17 18:03:00,
2013-01-17 13:08:00,42.4,25.1,29.58,NE,39,6.0,22.0,50,0.00,,,0.00,0312,Weather View 32 v70,2013-01-17 18:08:00,
2013-01-17 13:13:00,42.2,24.9,29.58,NNE,28,3.0,22.0,50,0.00,,,0.00,0352,Weather View 32 v70,2013-01-17 18:13:00,
2013-01-17 13:18:00,41.5,24.2,29.58,NE,34,7.0,22.0,50,0.00,,,0.00,0232,Weather View 32 v70,2013-01-17 18:18:00,
2013-01-17 13:23:00,41.7,24.8,29.57,NE,39,6.0,19.0,51,0.00,,,0.00,0200,Weather View 32 v70,2013-01-17 18:23:00,
2013-01-17 13:28:00,41.2,24.9,29.58,ENE,62,10.0,19.0,52,0.00,,,0.00,0280,Weather View 32 v70,2013-01-17 18:28:00,
2013-01-17 13:33:00,41.1,24.8,29.58,East,90,9.0,19.0,52,0.00,,,0.00,0184,Weather View 32 v70,2013-01-17 18:33:00,
2013-01-17 13:38:00,41.2,25.3,29.58,SE,129,11.0,19.0,53,0.00,,,0.00,0184,Weather View 32 v70,2013-01-17 18:38:00,
2013-01-17 13:43:00,41.4,25.5,29.59,NNE,23,2.0,19.0,53,0.00,,,0.00,0184,Weather View 32 v70,2013-01-17 18:43:00,
2013-01-17 13:48:00,41.2,24.9,29.59,NNE,23,6.0,19.0,52,0.00,,,0.00,0168,Weather View 32 v70,2013-01-17 18:48:00,
2013-01-17 13:53:00,41.0,25.1,29.59,East,84,8.0,17.0,53,0.00,,,0.00,0160,Weather View 32 v70,2013-01-17 18:53:00,
2013-01-17 13:58:00,41.0,24.7,29.59,NNE,28,9.0,17.0,52,0.00,,,0.00,0208,Weather View 32 v70,2013-01-17 18:58:00,
2013-01-17 14:03:00,41.2,24.9,29.59,NE,34,5.0,17.0,52,0.00,,,0.00,0216,Weather View 32 v70,2013-01-17 19:03:00,
2013-01-17 14:08:00,41.1,24.8,29.59,NE,56,8.0,17.0,52,0.00,,,0.00,0184,Weather View 32 v70,2013-01-17 19:08:00,
2013-01-17 14:13:00,41.1,24.8,29.59,NE,56,9.0,17.0,52,0.00,,,0.00,0160,Weather View 32 v70,2013-01-17 19:13:00,
2013-01-17 14:18:00,41.5,25.6,29.59,North,0,4.0,17.0,53,0.00,,,0.00,0216,Weather View 32 v70,2013-01-17 19:18:00,
2013-01-17 14:23:00,41.3,25.0,29.59,NE,34,6.0,17.0,52,0.00,,,0.00,0152,Weather View 32 v70,2013-01-17 19:23:00,
2013-01-17 14:28:00,40.9,24.6,29.59,NE,34,5.0,17.0,52,0.00,,,0.00,0128,Weather View 32 v70,2013-01-17 19:28:00,
2013-01-17 14:33:00,41.5,25.2,29.59,NNE,23,5.0,17.0,52,0.00,,,0.00,0144,Weather View 32 v70,2013-01-17 19:33:00,
2013-01-17 14:38:00,41.1,24.8,29.59,NE,45,9.0,17.0,52,0.00,,,0.00,0120,Weather View 32 v70,2013-01-17 19:38:00,
2013-01-17 14:43:00,40.9,25.9,29.58,WSW,253,6.0,17.0,55,0.00,,,0.00,0096,Weather View 32 v70,2013-01-17 19:43:00,
2013-01-17 14:48:00,40.6,25.3,29.58,NE,45,7.0,17.0,54,0.00,,,0.00,0104,Weather View 32 v70,2013-01-17 19:48:00,
2013-01-17 14:53:00,40.4,25.0,29.59,NE,51,9.0,17.0,54,0.00,,,0.00,0080,Weather View 32 v70,2013-01-17 19:53:00,
2013-01-17 14:58:00,40.3,25.0,29.59,NNE,28,7.0,15.0,54,0.00,,,0.00,0064,Weather View 32 v70,2013-01-17 19:58:00,
2013-01-17 15:03:00,40.4,25.9,29.59,East,101,8.0,15.0,56,0.00,,,0.00,0048,Weather View 32 v70,2013-01-17 20:03:00,
2013-01-17 15:08:00,40.2,25.3,29.59,NNE,28,5.0,15.0,55,0.00,,,0.00,0072,Weather View 32 v70,2013-01-17 20:08:00,
2013-01-17 15:13:00,40.1,25.6,29.59,NNE,23,2.0,15.0,56,0.00,,,0.00,0048,Weather View 32 v70,2013-01-17 20:13:00,
2013-01-17 15:18:00,40.1,25.6,29.59,North,11,3.0,14.0,56,0.00,,,0.00,0064,Weather View 32 v70,2013-01-17 20:18:00,
2013-01-17 15:23:00,40.0,27.2,29.60,NNE,23,7.0,14.0,60,0.00,,,0.00,0072,Weather View 32 v70,2013-01-17 20:23:00,
2013-01-17 15:28:00,40.0,25.5,29.59,NNE,28,6.0,14.0,56,0.00,,,0.00,0064,Weather View 32 v70,2013-01-17 20:28:00,
2013-01-17 15:33:00,39.6,25.2,29.59,NE,45,8.0,14.0,56,0.00,,,0.00,0040,Weather View 32 v70,2013-01-17 20:33:00,
2013-01-17 15:38:00,39.5,25.1,29.59,NNE,28,4.0,14.0,56,0.00,,,0.00,0040,Weather View 32 v70,2013-01-17 20:38:00,
2013-01-17 15:43:00,39.4,25.8,29.60,NNE,23,4.0,14.0,58,0.00,,,0.00,0024,Weather View 32 v70,2013-01-17 20:43:00,
2013-01-17 15:48:00,39.4,25.0,29.60,NNE,28,3.0,14.0,56,0.00,,,0.00,0024,Weather View 32 v70,2013-01-17 20:48:00,
2013-01-17 15:53:00,39.3,25.3,29.60,NNE,23,6.0,14.0,57,0.00,,,0.00,0024,Weather View 32 v70,2013-01-17 20:53:00,
2013-01-17 15:58:00,39.2,24.8,29.60,NNE,23,6.0,14.0,56,0.00,,,0.00,0016,Weather View 32 v70,2013-01-17 20:58:00,
2013-01-17 16:03:00,39.2,24.8,29.60,NNE,23,5.0,13.0,56,0.00,,,0.00,0024,Weather View 32 v70,2013-01-17 21:03:00,
2013-01-17 16:08:00,39.1,24.7,29.60,NE,34,7.0,13.0,56,0.00,,,0.00,0024,Weather View 32 v70,2013-01-17 21:08:00,
2013-01-17 16:13:00,39.1,24.7,29.60,NNE,28,6.0,13.0,56,0.00,,,0.00,0016,Weather View 32 v70,2013-01-17 21:13:00,
2013-01-17 16:18:00,39.1,26.7,29.61,NNE,28,4.0,13.0,61,0.00,,,0.00,0008,Weather View 32 v70,2013-01-17 21:18:00,
2013-01-17 16:23:00,38.8,24.9,29.61,NNE,28,6.0,13.0,57,0.00,,,0.00,0008,Weather View 32 v70,2013-01-17 21:23:00,
2013-01-17 16:28:00,38.8,24.9,29.61,NNE,28,7.0,13.0,57,0.00,,,0.00,0000,Weather View 32 v70,2013-01-17 21:28:00,
2013-01-17 16:33:00,38.7,24.8,29.61,NNE,23,6.0,13.0,57,0.00,,,0.00,0000,Weather View 32 v70,2013-01-17 21:33:00,
2013-01-17 16:38:00,38.8,25.3,29.60,NNE,28,4.0,13.0,58,0.00,,,0.00,0000,Weather View 32 v70,2013-01-17 21:38:00,
2013-01-17 16:43:00,38.8,25.3,29.60,NNE,23,2.0,11.0,58,0.00,,,0.00,0000,Weather View 32 v70,2013-01-17 21:43:00,
2013-01-17 16:48:00,38.6,25.1,29.61,NNE,28,6.0,11.0,58,0.00,,,0.00,0000,Weather View 32 v70,2013-01-17 21:48:00,
2013-01-17 16:53:00,38.6,24.7,29.62,NNE,28,5.0,11.0,57,0.00,,,0.00,0000,Weather View 32 v70,2013-01-17 21:53:00,
2013-01-17 16:58:00,38.7,24.8,29.62,NNE,28,7.0,11.0,57,0.00,,,0.00,0000,Weather View 32 v70,2013-01-17 21:58:00,
2013-01-17 17:03:00,38.6,25.1,29.62,NNE,23,4.0,10.0,58,0.00,,,0.00,0000,Weather View 32 v70,2013-01-17 22:03:00,
2013-01-17 17:08:00,38.5,25.0,29.62,NNE,23,3.0,10.0,58,0.00,,,0.00,0000,Weather View 32 v70,2013-01-17 22:08:00,
2013-01-17 17:13:00,38.4,25.7,29.62,NNE,23,4.0,10.0,60,0.00,,,0.00,0000,Weather View 32 v70,2013-01-17 22:13:00,
2013-01-17 17:18:00,38.3,24.8,29.63,NNE,23,5.0,10.0,58,0.00,,,0.00,0000,Weather View 32 v70,2013-01-17 22:18:00,
2013-01-17 17:23:00,38.2,25.1,29.63,NNE,23,4.0,10.0,59,0.00,,,0.00,0000,Weather View 32 v70,2013-01-17 22:23:00,
2013-01-17 17:28:00,38.2,25.1,29.62,NNE,28,3.0,10.0,59,0.00,,,0.00,0000,Weather View 32 v70,2013-01-17 22:28:00,
2013-01-17 17:33:00,38.3,25.2,29.64,NNE,23,4.0,10.0,59,0.00,,,0.00,0000,Weather View 32 v70,2013-01-17 22:33:00,
2013-01-17 17:38:00,38.2,25.5,29.64,NNE,23,4.0,9.0,60,0.00,,,0.00,0000,Weather View 32 v70,2013-01-17 22:38:00,
2013-01-17 17:43:00,38.3,25.2,29.65,NNE,28,3.0,9.0,59,0.00,,,0.00,0000,Weather View 32 v70,2013-01-17 22:43:00,
2013-01-17 17:48:00,38.4,25.3,29.64,NNE,23,5.0,9.0,59,0.00,,,0.00,0000,Weather View 32 v70,2013-01-17 22:48:00,
2013-01-17 17:53:00,38.3,25.2,29.62,NNE,28,4.0,9.0,59,0.00,,,0.00,0000,Weather View 32 v70,2013-01-17 22:53:00,
2013-01-17 17:58:00,38.2,25.1,29.62,NNE,23,6.0,8.0,59,0.00,,,0.00,0000,Weather View 32 v70,2013-01-17 22:58:00,
2013-01-17 18:03:00,37.9,25.3,29.64,NNE,23,3.0,8.0,60,0.00,,,0.00,0000,Weather View 32 v70,2013-01-17 23:03:00,
2013-01-17 18:08:00,38.1,25.8,29.64,NNE,23,6.0,8.0,61,0.00,,,0.00,0000,Weather View 32 v70,2013-01-17 23:08:00,
2013-01-17 18:13:00,38.2,25.5,29.63,NNE,23,4.0,8.0,60,0.00,,,0.00,0000,Weather View 32 v70,2013-01-17 23:13:00,
2013-01-17 18:18:00,38.1,25.4,29.64,NNE,28,4.0,8.0,60,0.00,,,0.00,0000,Weather View 32 v70,2013-01-17 23:18:00,
2013-01-17 18:23:00,37.9,25.3,29.65,NNE,23,5.0,8.0,60,0.00,,,0.00,0000,Weather View 32 v70,2013-01-17 23:23:00,
2013-01-17 18:28:00,38.1,25.4,29.64,NNE,23,3.0,8.0,60,0.00,,,0.00,0000,Weather View 32 v70,2013-01-17 23:28:00,
2013-01-17 18:33:00,38.1,25.4,29.64,NNE,28,4.0,8.0,60,0.00,,,0.00,0000,Weather View 32 v70,2013-01-17 23:33:00,
2013-01-17 18:38:00,37.9,25.3,29.64,NNE,28,6.0,8.0,60,0.00,,,0.00,0000,Weather View 32 v70,2013-01-17 23:38:00,
2013-01-17 18:43:00,37.9,25.3,29.63,NNE,23,6.0,8.0,60,0.00,,,0.00,0000,Weather View 32 v70,2013-01-17 23:43:00,
2013-01-17 18:48:00,37.7,25.4,29.64,NNE,28,5.0,8.0,61,0.00,,,0.00,0000,Weather View 32 v70,2013-01-17 23:48:00,
2013-01-17 18:53:00,37.4,25.5,29.64,NNE,23,5.0,8.0,62,0.00,,,0.00,0000,Weather View 32 v70,2013-01-17 23:53:00,
2013-01-17 18:58:00,37.5,25.6,29.65,NNE,23,5.0,8.0,62,0.00,,,0.00,0000,Weather View 32 v70,2013-01-17 23:58:00,
2013-01-17 19:03:00,37.5,25.2,29.64,NNE,23,5.0,8.0,61,0.00,,,0.00,0000,Weather View 32 v70,2013-01-18 00:03:00,
2013-01-17 19:08:00,37.4,25.5,29.65,NNE,23,4.0,8.0,62,0.00,,,0.00,0000,Weather View 32 v70,2013-01-18 00:08:00,
2013-01-17 19:13:00,37.6,25.4,29.64,NNE,28,5.0,9.0,61,0.00,,,0.00,0000,Weather View 32 v70,2013-01-18 00:13:00,
2013-01-17 19:18:00,37.7,25.4,29.64,NNE,28,7.0,9.0,61,0.00,,,0.00,0000,Weather View 32 v70,2013-01-18 00:18:00,
2013-01-17 19:23:00,37.6,25.4,29.64,NNE,23,4.0,9.0,61,0.00,,,0.00,0000,Weather View 32 v70,2013-01-18 00:23:00,
2013-01-17 19:28:00,37.6,25.4,29.64,NNE,28,3.0,9.0,61,0.00,,,0.00,0000,Weather View 32 v70,2013-01-18 00:28:00,
2013-01-17 19:33:00,37.4,26.3,29.64,NNE,28,3.0,9.0,64,0.00,,,0.00,0000,Weather View 32 v70,2013-01-18 00:33:00,
2013-01-17 19:38:00,37.4,25.9,29.64,NNE,28,5.0,9.0,63,0.00,,,0.00,0000,Weather View 32 v70,2013-01-18 00:38:00,
2013-01-17 19:43:00,37.4,25.5,29.63,NNE,28,6.0,9.0,62,0.00,,,0.00,0000,Weather View 32 v70,2013-01-18 00:43:00,
2013-01-17 19:48:00,37.6,27.3,29.64,NNE,23,5.0,9.0,66,0.00,,,0.00,0000,Weather View 32 v70,2013-01-18 00:48:00,
2013-01-17 19:53:00,37.3,25.0,29.63,NNE,23,6.0,9.0,61,0.00,,,0.00,0000,Weather View 32 v70,2013-01-18 00:53:00,
2013-01-17 19:58:00,37.3,25.4,29.64,NNE,28,9.0,9.0,62,0.00,,,0.00,0000,Weather View 32 v70,2013-01-18 00:58:00,
2013-01-17 20:03:00,37.4,26.3,29.64,NNE,28,6.0,9.0,64,0.00,,,0.00,0000,Weather View 32 v70,2013-01-18 01:03:00,
2013-01-17 20:08:00,37.2,25.3,29.63,NNE,23,4.0,9.0,62,0.00,,,0.00,0000,Weather View 32 v70,2013-01-18 01:08:00,
2013-01-17 20:13:00,36.9,25.1,29.64,NNE,23,3.0,10.0,62,0.00,,,0.00,0000,Weather View 32 v70,2013-01-18 01:13:00,
2013-01-17 20:18:00,36.9,25.5,29.64,NNE,28,2.0,10.0,63,0.00,,,0.00,0000,Weather View 32 v70,2013-01-18 01:18:00,
2013-01-17 20:23:00,36.6,25.2,29.64,NNE,23,3.0,10.0,63,0.00,,,0.00,0000,Weather View 32 v70,2013-01-18 01:23:00,
2013-01-17 20:28:00,36.7,26.0,29.64,NNE,23,7.0,10.0,65,0.00,,,0.00,0000,Weather View 32 v70,2013-01-18 01:28:00,
2013-01-17 20:33:00,36.3,26.0,29.63,NNE,28,5.0,10.0,66,0.00,,,0.00,0000,Weather View 32 v70,2013-01-18 01:33:00,
2013-01-17 20:38:00,36.1,26.9,29.63,NNE,23,5.0,10.0,69,0.00,,,0.00,0000,Weather View 32 v70,2013-01-18 01:38:00,
2013-01-17 20:43:00,35.8,27.0,29.63,NNE,23,2.0,10.0,70,0.00,,,0.00,0000,Weather View 32 v70,2013-01-18 01:43:00,
2013-01-17 20:48:00,35.6,26.0,29.62,WSW,248,11.0,12.0,68,0.00,,,0.00,0000,Weather View 32 v70,2013-01-18 01:48:00,
2013-01-17 20:53:00,35.4,25.5,29.63,South,191,6.0,14.0,67,0.00,,,0.00,0000,Weather View 32 v70,2013-01-18 01:53:00,
2013-01-17 20:58:00,35.4,25.8,29.62,South,191,9.0,14.0,68,0.00,,,0.00,0000,Weather View 32 v70,2013-01-18 01:58:00,
2013-01-17 21:03:00,35.1,25.6,29.61,South,191,8.0,14.0,68,0.00,,,0.00,0000,Weather View 32 v70,2013-01-18 02:03:00,
2013-01-17 21:08:00,35.2,26.4,29.62,SSW,197,11.0,14.0,70,0.00,,,0.00,0000,Weather View 32 v70,2013-01-18 02:08:00,
2013-01-17 21:13:00,35.0,25.9,29.62,South,191,10.0,14.0,69,0.00,,,0.00,0000,Weather View 32 v70,2013-01-18 02:13:00,
2013-01-17 21:18:00,35.1,26.3,29.63,South,191,5.0,14.0,70,0.00,,,0.00,0000,Weather View 32 v70,2013-01-18 02:18:00,
2013-01-17 21:23:00,35.0,26.2,29.63,South,191,5.0,14.0,70,0.00,,,0.00,0000,Weather View 32 v70,2013-01-18 02:23:00,
2013-01-17 21:28:00,34.8,26.0,29.62,South,191,6.0,14.0,70,0.00,,,0.00,0000,Weather View 32 v70,2013-01-18 02:28:00,
2013-01-17 21:33:00,34.7,26.2,29.62,South,191,5.0,14.0,71,0.00,,,0.00,0000,Weather View 32 v70,2013-01-18 02:33:00,
2013-01-17 21:38:00,34.6,25.4,29.62,SSW,197,6.0,14.0,69,0.00,,,0.00,0000,Weather View 32 v70,2013-01-18 02:38:00,
2013-01-17 21:43:00,34.5,25.0,29.61,South,191,5.0,14.0,68,0.00,,,0.00,0000,Weather View 32 v70,2013-01-18 02:43:00,
2013-01-17 21:48:00,34.3,24.5,29.62,South,191,9.0,14.0,67,0.00,,,0.00,0000,Weather View 32 v70,2013-01-18 02:48:00,
2013-01-17 21:53:00,34.2,24.8,29.62,South,191,9.0,13.0,68,0.00,,,0.00,0000,Weather View 32 v70,2013-01-18 02:53:00,
2013-01-17 21:58:00,34.1,24.3,29.62,SSW,197,3.0,13.0,67,0.00,,,0.00,0000,Weather View 32 v70,2013-01-18 02:58:00,
2013-01-17 22:03:00,33.9,24.4,29.61,SSW,197,5.0,13.0,68,0.00,,,0.00,0000,Weather View 32 v70,2013-01-18 03:03:00,
2013-01-17 22:08:00,33.8,24.0,29.62,SSW,197,6.0,13.0,67,0.00,,,0.00,0000,Weather View 32 v70,2013-01-18 03:08:00,
2013-01-17 22:13:00,33.8,23.2,29.61,South,191,9.0,13.0,65,0.00,,,0.00,0000,Weather View 32 v70,2013-01-18 03:13:00,
2013-01-17 22:18:00,33.6,23.4,29.60,South,191,6.0,13.0,66,0.00,,,0.00,0000,Weather View 32 v70,2013-01-18 03:18:00,
2013-01-17 22:23:00,33.4,23.3,29.60,SSW,197,6.0,13.0,66,0.00,,,0.00,0000,Weather View 32 v70,2013-01-18 03:23:00,
2013-01-17 22:28:00,33.3,23.2,29.59,SSW,197,7.0,13.0,66,0.00,,,0.00,0000,Weather View 32 v70,2013-01-18 03:28:00,
2013-01-17 22:33:00,33.2,23.4,29.59,SSW,197,6.0,13.0,67,0.00,,,0.00,0000,Weather View 32 v70,2013-01-18 03:33:00,
2013-01-17 22:38:00,33.0,22.9,29.58,South,191,9.0,12.0,66,0.00,,,0.00,0000,Weather View 32 v70,2013-01-18 03:38:00,
2013-01-17 22:43:00,33.1,23.0,29.59,South,191,6.0,12.0,66,0.00,,,0.00,0000,Weather View 32 v70,2013-01-18 03:43:00,
2013-01-17 22:48:00,32.9,22.4,29.57,SSW,197,8.0,12.0,65,0.00,,,0.00,0000,Weather View 32 v70,2013-01-18 03:48:00,
2013-01-17 22:53:00,32.7,22.2,29.56,South,191,5.0,12.0,65,0.00,,,0.00,0000,Weather View 32 v70,2013-01-18 03:53:00,
2013-01-17 22:58:00,32.5,21.3,29.57,SSW,197,5.0,14.0,63,0.00,,,0.00,0000,Weather View 32 v70,2013-01-18 03:58:00,
2013-01-17 23:03:00,32.7,22.2,29.58,SSW,197,4.0,14.0,65,0.00,,,0.00,0000,Weather View 32 v70,2013-01-18 04:03:00,
2013-01-17 23:08:00,32.4,21.2,29.61,South,191,7.0,14.0,63,0.00,,,0.00,0000,Weather View 32 v70,2013-01-18 04:08:00,
2013-01-17 23:13:00,32.5,21.7,29.61,SSW,197,4.0,14.0,64,0.00,,,0.00,0000,Weather View 32 v70,2013-01-18 04:13:00,
2013-01-17 23:18:00,32.3,21.5,29.61,SSW,197,6.0,14.0,64,0.00,,,0.00,0000,Weather View 32 v70,2013-01-18 04:18:00,
2013-01-17 23:23:00,32.3,21.8,29.61,SSW,197,3.0,14.0,65,0.00,,,0.00,0000,Weather View 32 v70,2013-01-18 04:23:00,
2013-01-17 23:28:00,32.4,22.0,29.61,South,191,2.0,14.0,65,0.00,,,0.00,0000,Weather View 32 v70,2013-01-18 04:28:00,
2013-01-17 23:33:00,32.0,21.2,29.60,SSW,197,4.0,14.0,64,0.00,,,0.00,0000,Weather View 32 v70,2013-01-18 04:33:00,
2013-01-17 23:38:00,31.9,21.8,29.60,SSW,197,9.0,14.0,66,0.00,,,0.00,0000,Weather View 32 v70,2013-01-18 04:38:00,
2013-01-17 23:43:00,31.8,22.0,29.60,SSW,197,10.0,14.0,67,0.00,,,0.00,0000,Weather View 32 v70,2013-01-18 04:43:00,
2013-01-17 23:48:00,31.5,21.1,29.60,South,191,7.0,15.0,65,0.00,,,0.00,0000,Weather View 32 v70,2013-01-18 04:48:00,
2013-01-17 23:53:00,31.6,21.6,29.61,SSW,197,6.0,15.0,66,0.00,,,0.00,0000,Weather View 32 v70,2013-01-18 04:53:00,
2013-01-17 23:58:00,31.3,20.9,29.59,South,191,9.0,17.0,65,0.00,,,0.00,0000,Weather View 32 v70,2013-01-18 04:58:00,